sensor_id;sensor_type;location;lat;lon;timestamp;pressure;altitude;pressure_sealevel;temperature;humidity
84746;BME280;74975;51.922;6.480;2024-03-02T00:01:41;99899.50;;;7.96;72.11
84746;BME280;74975;51.922;6.480;2024-03-02T00:04:07;99889.22;;;8.01;71.65
84746;BME280;74975;51.922;6.480;2024-03-02T00:06:36;99884.81;;;7.95;71.90
84746;BME280;74975;51.922;6.480;2024-03-02T00:09:06;99883.38;;;7.99;72.08
84746;BME280;74975;51.922;6.480;2024-03-02T00:11:37;99887.00;;;8.05;72.12
84746;BME280;74975;51.922;6.480;2024-03-02T00:14:07;99878.72;;;8.01;72.37
84746;BME280;74975;51.922;6.480;2024-03-02T00:16:37;99868.66;;;8.05;71.67
84746;BME280;74975;51.922;6.480;2024-03-02T00:19:09;99864.22;;;7.98;72.28
84746;BME280;74975;51.922;6.480;2024-03-02T00:21:39;99867.28;;;7.95;73.14
84746;BME280;74975;51.922;6.480;2024-03-02T00:24:18;99866.81;;;8.12;71.16
84746;BME280;74975;51.922;6.480;2024-03-02T00:26:45;99863.75;;;8.21;72.17
84746;BME280;74975;51.922;6.480;2024-03-02T00:29:16;99866.16;;;8.29;71.41
84746;BME280;74975;51.922;6.480;2024-03-02T00:31:46;99870.38;;;8.30;71.18
84746;BME280;74975;51.922;6.480;2024-03-02T00:34:21;99879.69;;;8.26;71.63
84746;BME280;74975;51.922;6.480;2024-03-02T00:36:47;99872.78;;;8.38;70.91
84746;BME280;74975;51.922;6.480;2024-03-02T00:39:16;99874.94;;;8.48;69.84
84746;BME280;74975;51.922;6.480;2024-03-02T00:41:43;99879.97;;;8.49;69.92
84746;BME280;74975;51.922;6.480;2024-03-02T00:44:20;99877.97;;;8.51;69.70
84746;BME280;74975;51.922;6.480;2024-03-02T00:46:51;99873.13;;;8.48;70.77
84746;BME280;74975;51.922;6.480;2024-03-02T00:49:22;99868.06;;;8.53;70.30
84746;BME280;74975;51.922;6.480;2024-03-02T00:51:52;99866.25;;;8.47;71.37
84746;BME280;74975;51.922;6.480;2024-03-02T00:54:27;99859.25;;;8.41;71.36
84746;BME280;74975;51.922;6.480;2024-03-02T00:56:58;99864.66;;;8.46;71.25
84746;BME280;74975;51.922;6.480;2024-03-02T00:59:24;99866.44;;;8.52;70.20
84746;BME280;74975;51.922;6.480;2024-03-02T01:01:56;99856.59;;;8.48;70.70
84746;BME280;74975;51.922;6.480;2024-03-02T01:04:24;99854.53;;;8.56;70.49
84746;BME280;74975;51.922;6.480;2024-03-02T01:06:56;99858.75;;;8.57;70.75
84746;BME280;74975;51.922;6.480;2024-03-02T01:09:27;99860.56;;;8.57;70.54
84746;BME280;74975;51.922;6.480;2024-03-02T01:11:54;99852.91;;;8.55;70.23
84746;BME280;74975;51.922;6.480;2024-03-02T01:14:19;99859.91;;;8.61;70.22
84746;BME280;74975;51.922;6.480;2024-03-02T01:16:45;99869.81;;;8.59;70.40
84746;BME280;74975;51.922;6.480;2024-03-02T01:19:11;99866.66;;;8.51;70.66
84746;BME280;74975;51.922;6.480;2024-03-02T01:21:42;99867.47;;;8.45;71.50
84746;BME280;74975;51.922;6.480;2024-03-02T01:24:07;99861.81;;;8.48;70.81
84746;BME280;74975;51.922;6.480;2024-03-02T01:26:36;99864.97;;;8.63;70.03
84746;BME280;74975;51.922;6.480;2024-03-02T01:29:06;99860.09;;;8.67;70.43
84746;BME280;74975;51.922;6.480;2024-03-02T01:31:33;99864.91;;;8.70;70.14
84746;BME280;74975;51.922;6.480;2024-03-02T01:34:02;99874.19;;;8.72;70.28
84746;BME280;74975;51.922;6.480;2024-03-02T01:36:32;99870.56;;;8.73;70.52
84746;BME280;74975;51.922;6.480;2024-03-02T01:39:00;99872.13;;;8.81;69.28
84746;BME280;74975;51.922;6.480;2024-03-02T01:41:27;99871.84;;;8.89;69.80
84746;BME280;74975;51.922;6.480;2024-03-02T01:43:57;99868.22;;;8.90;69.61
84746;BME280;74975;51.922;6.480;2024-03-02T01:46:22;99871.22;;;8.93;69.68
84746;BME280;74975;51.922;6.480;2024-03-02T01:48:48;99871.25;;;8.87;69.68
84746;BME280;74975;51.922;6.480;2024-03-02T01:51:17;99870.69;;;8.85;70.77
84746;BME280;74975;51.922;6.480;2024-03-02T01:53:46;99877.31;;;8.87;69.63
84746;BME280;74975;51.922;6.480;2024-03-02T01:56:11;99878.72;;;8.90;69.51
84746;BME280;74975;51.922;6.480;2024-03-02T01:58:40;99883.31;;;8.94;70.28
84746;BME280;74975;51.922;6.480;2024-03-02T02:01:11;99869.81;;;8.91;70.06
84746;BME280;74975;51.922;6.480;2024-03-02T02:03:40;99880.69;;;8.94;69.76
84746;BME280;74975;51.922;6.480;2024-03-02T02:06:08;99889.97;;;8.97;69.57
84746;BME280;74975;51.922;6.480;2024-03-02T02:08:37;99889.38;;;8.95;69.94
84746;BME280;74975;51.922;6.480;2024-03-02T02:11:09;99892.38;;;8.98;69.45
84746;BME280;74975;51.922;6.480;2024-03-02T02:13:50;99897.03;;;8.96;70.06
84746;BME280;74975;51.922;6.480;2024-03-02T02:16:17;99887.19;;;8.92;70.43
84746;BME280;74975;51.922;6.480;2024-03-02T02:18:47;99892.44;;;8.92;70.68
84746;BME280;74975;51.922;6.480;2024-03-02T02:21:26;99897.91;;;8.90;70.91
84746;BME280;74975;51.922;6.480;2024-03-02T02:23:56;99899.13;;;8.88;71.38
84746;BME280;74975;51.922;6.480;2024-03-02T02:26:25;99899.13;;;8.88;71.59
84746;BME280;74975;51.922;6.480;2024-03-02T02:28:58;99901.16;;;8.86;71.67
84746;BME280;74975;51.922;6.480;2024-03-02T02:31:23;99903.41;;;8.82;71.66
84746;BME280;74975;51.922;6.480;2024-03-02T02:33:58;99890.13;;;9.02;70.17
84746;BME280;74975;51.922;6.480;2024-03-02T02:36:33;99902.38;;;9.14;69.33
84746;BME280;74975;51.922;6.480;2024-03-02T02:39:06;99907.06;;;9.06;70.75
84746;BME280;74975;51.922;6.480;2024-03-02T02:41:36;99903.69;;;8.99;70.31
84746;BME280;74975;51.922;6.480;2024-03-02T02:44:11;99911.78;;;8.97;70.35
84746;BME280;74975;51.922;6.480;2024-03-02T02:46:39;99905.56;;;8.92;70.83
84746;BME280;74975;51.922;6.480;2024-03-02T02:49:05;99907.03;;;8.81;72.17
84746;BME280;74975;51.922;6.480;2024-03-02T02:51:41;99904.09;;;8.71;71.86
84746;BME280;74975;51.922;6.480;2024-03-02T02:54:15;99896.03;;;8.66;72.75
84746;BME280;74975;51.922;6.480;2024-03-02T02:56:48;99891.19;;;8.63;72.40
84746;BME280;74975;51.922;6.480;2024-03-02T02:59:17;99893.06;;;8.56;73.36
84746;BME280;74975;51.922;6.480;2024-03-02T03:01:46;99892.28;;;8.49;74.42
84746;BME280;74975;51.922;6.480;2024-03-02T03:04:18;99895.97;;;8.41;75.10
84746;BME280;74975;51.922;6.480;2024-03-02T03:06:44;99893.56;;;8.33;75.10
84746;BME280;74975;51.922;6.480;2024-03-02T03:09:09;99896.38;;;8.38;75.13
84746;BME280;74975;51.922;6.480;2024-03-02T03:11:38;99893.56;;;8.33;75.53
84746;BME280;74975;51.922;6.480;2024-03-02T03:14:14;99890.31;;;8.38;75.57
84746;BME280;74975;51.922;6.480;2024-03-02T03:16:45;99885.06;;;8.38;75.45
84746;BME280;74975;51.922;6.480;2024-03-02T03:19:18;99885.28;;;8.36;76.63
84746;BME280;74975;51.922;6.480;2024-03-02T03:21:49;99876.84;;;8.34;76.22
84746;BME280;74975;51.922;6.480;2024-03-02T03:24:19;99870.38;;;8.37;76.80
84746;BME280;74975;51.922;6.480;2024-03-02T03:26:50;99873.19;;;8.35;76.44
84746;BME280;74975;51.922;6.480;2024-03-02T03:29:16;99880.03;;;8.36;76.02
84746;BME280;74975;51.922;6.480;2024-03-02T03:31:48;99883.50;;;8.30;76.34
84746;BME280;74975;51.922;6.480;2024-03-02T03:34:20;99874.03;;;8.29;76.64
84746;BME280;74975;51.922;6.480;2024-03-02T03:36:50;99877.06;;;8.26;77.31
84746;BME280;74975;51.922;6.480;2024-03-02T03:39:19;99881.09;;;8.29;76.46
84746;BME280;74975;51.922;6.480;2024-03-02T03:41:47;99884.31;;;8.31;77.12
84746;BME280;74975;51.922;6.480;2024-03-02T03:44:13;99875.84;;;8.22;77.79
84746;BME280;74975;51.922;6.480;2024-03-02T03:46:45;99880.88;;;8.24;77.52
84746;BME280;74975;51.922;6.480;2024-03-02T03:49:18;99886.75;;;8.19;78.04
84746;BME280;74975;51.922;6.480;2024-03-02T03:51:48;99877.66;;;8.22;78.15
84746;BME280;74975;51.922;6.480;2024-03-02T03:54:23;99883.31;;;8.19;77.43
84746;BME280;74975;51.922;6.480;2024-03-02T03:56:49;99888.78;;;8.17;78.21
84746;BME280;74975;51.922;6.480;2024-03-02T03:59:15;99887.94;;;8.23;77.56
84746;BME280;74975;51.922;6.480;2024-03-02T04:01:51;99888.16;;;8.22;77.55
84746;BME280;74975;51.922;6.480;2024-03-02T04:04:18;99886.16;;;8.17;78.17
84746;BME280;74975;51.922;6.480;2024-03-02T04:06:46;99884.53;;;8.16;77.55
84746;BME280;74975;51.922;6.480;2024-03-02T04:09:17;99878.91;;;8.13;78.10
84746;BME280;74975;51.922;6.480;2024-03-02T04:11:46;99884.31;;;8.18;76.64
84746;BME280;74975;51.922;6.480;2024-03-02T04:14:17;99888.56;;;8.19;76.96
84746;BME280;74975;51.922;6.480;2024-03-02T04:16:45;99893.16;;;8.23;77.31
84746;BME280;74975;51.922;6.480;2024-03-02T04:19:11;99893.16;;;8.23;76.80
84746;BME280;74975;51.922;6.480;2024-03-02T04:21:46;99902.25;;;8.21;76.86
84746;BME280;74975;51.922;6.480;2024-03-02T04:24:19;99909.94;;;8.22;77.08
84746;BME280;74975;51.922;6.480;2024-03-02T04:26:47;99908.72;;;8.25;77.33
84746;BME280;74975;51.922;6.480;2024-03-02T04:29:12;99913.38;;;8.16;78.34
84746;BME280;74975;51.922;6.480;2024-03-02T04:31:44;99911.16;;;8.13;78.11
84746;BME280;74975;51.922;6.480;2024-03-02T04:34:19;99919.63;;;8.09;78.57
84746;BME280;74975;51.922;6.480;2024-03-02T04:36:47;99916.84;;;8.10;77.84
84746;BME280;74975;51.922;6.480;2024-03-02T04:39:19;99921.84;;;8.12;78.17
84746;BME280;74975;51.922;6.480;2024-03-02T04:41:54;99912.38;;;8.17;77.69
84746;BME280;74975;51.922;6.480;2024-03-02T04:44:21;99919.78;;;8.20;77.11
84746;BME280;74975;51.922;6.480;2024-03-02T04:46:53;99918.22;;;8.13;77.86
84746;BME280;74975;51.922;6.480;2024-03-02T04:49:19;99918.66;;;8.10;77.42
84746;BME280;74975;51.922;6.480;2024-03-02T04:51:51;99926.50;;;8.10;77.97
84746;BME280;74975;51.922;6.480;2024-03-02T04:54:27;99925.28;;;8.06;77.42
84746;BME280;74975;51.922;6.480;2024-03-02T04:56:56;99936.38;;;8.01;77.54
84746;BME280;74975;51.922;6.480;2024-03-02T04:59:27;99933.00;;;8.01;76.57
84746;BME280;74975;51.922;6.480;2024-03-02T05:02:06;99940.03;;;8.00;77.13
84746;BME280;74975;51.922;6.480;2024-03-02T05:04:37;99938.63;;;7.97;77.01
84746;BME280;74975;51.922;6.480;2024-03-02T05:07:10;99935.00;;;7.92;76.68
84746;BME280;74975;51.922;6.480;2024-03-02T05:09:43;99940.25;;;7.92;75.76
84746;BME280;74975;51.922;6.480;2024-03-02T05:12:12;99938.63;;;7.91;74.97
84746;BME280;74975;51.922;6.480;2024-03-02T05:15:19;99941.47;;;7.83;75.70
84746;BME280;74975;51.922;6.480;2024-03-02T05:17:48;99936.25;;;7.76;75.78
84746;BME280;74975;51.922;6.480;2024-03-02T05:20:21;99933.84;;;7.62;76.89
84746;BME280;74975;51.922;6.480;2024-03-02T05:22:51;99956.59;;;7.55;77.21
84746;BME280;74975;51.922;6.480;2024-03-02T05:25:21;99951.78;;;7.39;77.78
84746;BME280;74975;51.922;6.480;2024-03-02T05:27:52;99949.75;;;7.21;78.39
84746;BME280;74975;51.922;6.480;2024-03-02T05:30:18;99955.00;;;7.14;78.66
84746;BME280;74975;51.922;6.480;2024-03-02T05:32:48;99955.00;;;7.14;78.28
84746;BME280;74975;51.922;6.480;2024-03-02T05:35:17;99957.00;;;7.12;78.22
84746;BME280;74975;51.922;6.480;2024-03-02T05:37:46;99953.19;;;7.15;78.28
84746;BME280;74975;51.922;6.480;2024-03-02T05:40:23;99953.78;;;7.10;79.12
84746;BME280;74975;51.922;6.480;2024-03-02T05:42:51;99964.47;;;7.15;79.22
84746;BME280;74975;51.922;6.480;2024-03-02T05:45:20;99963.06;;;7.19;78.91
84746;BME280;74975;51.922;6.480;2024-03-02T05:47:49;99963.22;;;7.18;79.22
84746;BME280;74975;51.922;6.480;2024-03-02T05:50:22;99971.28;;;7.23;78.48
84746;BME280;74975;51.922;6.480;2024-03-02T05:52:47;99969.50;;;7.30;78.57
84746;BME280;74975;51.922;6.480;2024-03-02T05:55:18;99960.84;;;7.29;79.26
84746;BME280;74975;51.922;6.480;2024-03-02T05:57:47;99958.03;;;7.24;78.91
84746;BME280;74975;51.922;6.480;2024-03-02T06:00:28;99958.03;;;7.24;78.82
84746;BME280;74975;51.922;6.480;2024-03-02T06:03:01;99965.66;;;7.19;79.03
84746;BME280;74975;51.922;6.480;2024-03-02T06:05:30;99971.09;;;7.11;79.12
84746;BME280;74975;51.922;6.480;2024-03-02T06:08:05;99984.56;;;7.02;80.85
84746;BME280;74975;51.922;6.480;2024-03-02T06:10:36;99987.75;;;6.97;80.66
84746;BME280;74975;51.922;6.480;2024-03-02T06:13:05;99980.91;;;6.96;80.71
84746;BME280;74975;51.922;6.480;2024-03-02T06:15:37;99984.31;;;6.90;81.94
84746;BME280;74975;51.922;6.480;2024-03-02T06:18:10;99994.56;;;6.85;81.93
84746;BME280;74975;51.922;6.480;2024-03-02T06:20:36;99994.34;;;6.74;82.13
84746;BME280;74975;51.922;6.480;2024-03-02T06:23:11;99988.88;;;6.69;82.10
84746;BME280;74975;51.922;6.480;2024-03-02T06:25:44;99992.06;;;6.57;82.76
84746;BME280;74975;51.922;6.480;2024-03-02T06:28:15;99995.00;;;6.41;83.49
84746;BME280;74975;51.922;6.480;2024-03-02T06:30:44;99991.53;;;6.28;84.27
84746;BME280;74975;51.922;6.480;2024-03-02T06:33:10;99983.38;;;6.10;84.87
84746;BME280;74975;51.922;6.480;2024-03-02T06:35:39;99982.66;;;5.94;85.13
84746;BME280;74975;51.922;6.480;2024-03-02T06:38:11;99987.03;;;5.87;86.07
84746;BME280;74975;51.922;6.480;2024-03-02T06:40:40;99994.44;;;5.84;86.33
84746;BME280;74975;51.922;6.480;2024-03-02T06:43:05;99994.06;;;5.87;86.76
84746;BME280;74975;51.922;6.480;2024-03-02T06:45:34;99998.03;;;5.83;86.92
84746;BME280;74975;51.922;6.480;2024-03-02T06:48:03;100004.44;;;5.80;87.40
84746;BME280;74975;51.922;6.480;2024-03-02T06:50:33;100010.78;;;5.92;87.01
84746;BME280;74975;51.922;6.480;2024-03-02T06:53:02;100013.50;;;6.06;86.83
84746;BME280;74975;51.922;6.480;2024-03-02T06:55:33;100010.66;;;6.01;86.63
84746;BME280;74975;51.922;6.480;2024-03-02T06:57:58;100006.28;;;6.08;86.94
84746;BME280;74975;51.922;6.480;2024-03-02T07:00:28;100004.47;;;6.08;87.24
84746;BME280;74975;51.922;6.480;2024-03-02T07:02:54;100001.44;;;6.05;87.24
84746;BME280;74975;51.922;6.480;2024-03-02T07:05:24;100015.31;;;6.05;87.34
84746;BME280;74975;51.922;6.480;2024-03-02T07:08:03;100012.97;;;6.17;86.50
84746;BME280;74975;51.922;6.480;2024-03-02T07:10:33;100014.81;;;6.23;86.19
84746;BME280;74975;51.922;6.480;2024-03-02T07:13:02;100025.69;;;6.33;85.81
84746;BME280;74975;51.922;6.480;2024-03-02T07:15:31;100015.53;;;6.44;86.23
84746;BME280;74975;51.922;6.480;2024-03-02T07:18:19;100031.28;;;6.57;85.69
84746;BME280;74975;51.922;6.480;2024-03-02T07:20:47;100037.34;;;6.64;85.60
84746;BME280;74975;51.922;6.480;2024-03-02T07:23:17;100024.72;;;6.75;85.34
84746;BME280;74975;51.922;6.480;2024-03-02T07:25:45;100033.81;;;6.92;85.41
84746;BME280;74975;51.922;6.480;2024-03-02T07:28:17;100038.91;;;7.00;84.23
84746;BME280;74975;51.922;6.480;2024-03-02T07:30:46;100038.50;;;7.03;85.07
84746;BME280;74975;51.922;6.480;2024-03-02T07:33:22;100038.94;;;7.13;84.57
84746;BME280;74975;51.922;6.480;2024-03-02T07:35:48;100041.41;;;7.27;84.42
84746;BME280;74975;51.922;6.480;2024-03-02T07:38:17;100037.59;;;7.43;83.13
84746;BME280;74975;51.922;6.480;2024-03-02T07:40:42;100040.22;;;7.69;82.17
84746;BME280;74975;51.922;6.480;2024-03-02T07:43:12;100045.88;;;7.99;81.33
84746;BME280;74975;51.922;6.480;2024-03-02T07:45:40;100042.63;;;8.04;80.91
84746;BME280;74975;51.922;6.480;2024-03-02T07:48:14;100046.06;;;8.17;80.31
84746;BME280;74975;51.922;6.480;2024-03-02T07:50:40;100062.22;;;8.27;80.07
84746;BME280;74975;51.922;6.480;2024-03-02T07:53:08;100057.53;;;8.23;79.72
84746;BME280;74975;51.922;6.480;2024-03-02T07:55:34;100052.09;;;8.24;79.65
84746;BME280;74975;51.922;6.480;2024-03-02T07:58:06;100066.81;;;8.19;80.16
84746;BME280;74975;51.922;6.480;2024-03-02T08:00:31;100068.44;;;8.20;79.78
84746;BME280;74975;51.922;6.480;2024-03-02T08:03:00;100063.97;;;8.20;80.15
84746;BME280;74975;51.922;6.480;2024-03-02T08:05:30;100073.06;;;8.37;79.96
84746;BME280;74975;51.922;6.480;2024-03-02T08:07:59;100060.63;;;8.84;78.95
84746;BME280;74975;51.922;6.480;2024-03-02T08:10:36;100068.78;;;9.13;75.66
84746;BME280;74975;51.922;6.480;2024-03-02T08:13:07;100071.47;;;9.38;75.93
84746;BME280;74975;51.922;6.480;2024-03-02T08:15:42;100078.09;;;9.47;73.39
84746;BME280;74975;51.922;6.480;2024-03-02T08:18:13;100078.25;;;9.52;74.32
84746;BME280;74975;51.922;6.480;2024-03-02T08:20:48;100081.31;;;9.80;72.67
84746;BME280;74975;51.922;6.480;2024-03-02T08:23:22;100083.88;;;9.87;72.80
84746;BME280;74975;51.922;6.480;2024-03-02T08:25:56;100089.72;;;9.89;71.84
84746;BME280;74975;51.922;6.480;2024-03-02T08:28:26;100089.19;;;10.12;72.56
84746;BME280;74975;51.922;6.480;2024-03-02T08:31:00;100086.72;;;10.10;70.88
84746;BME280;74975;51.922;6.480;2024-03-02T08:33:33;100081.47;;;10.10;72.19
84746;BME280;74975;51.922;6.480;2024-03-02T08:36:08;100087.16;;;9.82;70.97
84746;BME280;74975;51.922;6.480;2024-03-02T08:38:39;100087.81;;;9.78;71.76
84746;BME280;74975;51.922;6.480;2024-03-02T08:41:11;100088.34;;;9.86;71.85
84746;BME280;74975;51.922;6.480;2024-03-02T08:43:47;100092.34;;;10.20;71.54
84746;BME280;74975;51.922;6.480;2024-03-02T08:46:21;100090.16;;;10.17;70.52
84746;BME280;74975;51.922;6.480;2024-03-02T08:48:55;100091.94;;;9.92;71.60
84746;BME280;74975;51.922;6.480;2024-03-02T08:51:27;100087.25;;;9.69;71.33
84746;BME280;74975;51.922;6.480;2024-03-02T08:54:01;100088.50;;;9.91;70.13
84746;BME280;74975;51.922;6.480;2024-03-02T08:56:35;100096.91;;;10.31;69.90
84746;BME280;74975;51.922;6.480;2024-03-02T08:59:07;100104.72;;;10.38;69.74
84746;BME280;74975;51.922;6.480;2024-03-02T09:01:38;100101.66;;;10.41;70.95
84746;BME280;74975;51.922;6.480;2024-03-02T09:04:13;100098.69;;;10.74;70.68
84746;BME280;74975;51.922;6.480;2024-03-02T09:06:44;100101.31;;;10.74;69.55
84746;BME280;74975;51.922;6.480;2024-03-02T09:09:12;100104.69;;;10.99;69.64
84746;BME280;74975;51.922;6.480;2024-03-02T09:11:43;100099.28;;;11.12;69.26
84746;BME280;74975;51.922;6.480;2024-03-02T09:14:18;100099.34;;;10.69;67.77
84746;BME280;74975;51.922;6.480;2024-03-02T09:16:44;100094.16;;;10.81;68.43
84746;BME280;74975;51.922;6.480;2024-03-02T09:19:23;100095.69;;;11.06;66.23
84746;BME280;74975;51.922;6.480;2024-03-02T09:21:53;100096.63;;;11.12;67.71
84746;BME280;74975;51.922;6.480;2024-03-02T09:24:21;100104.59;;;11.23;65.94
84746;BME280;74975;51.922;6.480;2024-03-02T09:26:56;100100.75;;;11.38;65.31
84746;BME280;74975;51.922;6.480;2024-03-02T09:29:31;100091.94;;;11.73;64.45
84746;BME280;74975;51.922;6.480;2024-03-02T09:31:56;100102.41;;;11.80;63.59
84746;BME280;74975;51.922;6.480;2024-03-02T09:34:28;100096.31;;;11.68;64.04
84746;BME280;74975;51.922;6.480;2024-03-02T09:37:05;100100.44;;;11.46;64.37
84746;BME280;74975;51.922;6.480;2024-03-02T09:39:43;100106.63;;;11.69;64.60
84746;BME280;74975;51.922;6.480;2024-03-02T09:42:12;100107.84;;;11.67;62.78
84746;BME280;74975;51.922;6.480;2024-03-02T09:44:44;100098.41;;;11.89;64.14
84746;BME280;74975;51.922;6.480;2024-03-02T09:47:13;100090.88;;;11.63;62.35
84746;BME280;74975;51.922;6.480;2024-03-02T09:49:39;100095.09;;;11.34;63.09
84746;BME280;74975;51.922;6.480;2024-03-02T09:52:10;100097.63;;;12.00;62.18
84746;BME280;74975;51.922;6.480;2024-03-02T09:54:39;100097.47;;;11.72;61.78
84746;BME280;74975;51.922;6.480;2024-03-02T09:57:04;100104.22;;;11.68;61.41
84746;BME280;74975;51.922;6.480;2024-03-02T09:59:32;100102.78;;;11.06;62.21
84746;BME280;74975;51.922;6.480;2024-03-02T10:02:05;100107.84;;;11.37;63.43
84746;BME280;74975;51.922;6.480;2024-03-02T10:04:37;100102.31;;;11.86;61.99
84746;BME280;74975;51.922;6.480;2024-03-02T10:07:14;100092.34;;;11.59;61.75
84746;BME280;74975;51.922;6.480;2024-03-02T10:09:40;100091.63;;;11.70;59.91
84746;BME280;74975;51.922;6.480;2024-03-02T10:12:11;100098.06;;;11.26;61.74
84746;BME280;74975;51.922;6.480;2024-03-02T10:14:47;100094.00;;;11.42;61.44
84746;BME280;74975;51.922;6.480;2024-03-02T10:17:21;100092.34;;;11.59;61.86
84746;BME280;74975;51.922;6.480;2024-03-02T10:19:46;100092.09;;;11.19;63.96
84746;BME280;74975;51.922;6.480;2024-03-02T10:22:23;100081.06;;;10.92;63.94
84746;BME280;74975;51.922;6.480;2024-03-02T10:24:56;100081.91;;;11.52;64.05
84746;BME280;74975;51.922;6.480;2024-03-02T10:27:33;100083.16;;;11.50;62.93
84746;BME280;74975;51.922;6.480;2024-03-02T10:29:59;100080.56;;;12.14;62.33
84746;BME280;74975;51.922;6.480;2024-03-02T10:32:41;100091.28;;;12.71;60.89
84746;BME280;74975;51.922;6.480;2024-03-02T10:35:16;100081.09;;;13.26;58.07
84746;BME280;74975;51.922;6.480;2024-03-02T10:37:48;100087.06;;;13.49;56.29
84746;BME280;74975;51.922;6.480;2024-03-02T10:40:29;100086.03;;;13.22;55.20
84746;BME280;74975;51.922;6.480;2024-03-02T10:43:05;100085.84;;;13.12;58.32
84746;BME280;74975;51.922;6.480;2024-03-02T10:45:39;100090.16;;;13.74;57.20
84746;BME280;74975;51.922;6.480;2024-03-02T10:48:12;100091.72;;;13.59;56.34
84746;BME280;74975;51.922;6.480;2024-03-02T10:50:48;100089.44;;;13.34;56.30
84746;BME280;74975;51.922;6.480;2024-03-02T10:53:19;100089.53;;;13.67;56.21
84746;BME280;74975;51.922;6.480;2024-03-02T10:55:58;100082.22;;;12.78;58.32
84746;BME280;74975;51.922;6.480;2024-03-02T10:58:32;100085.69;;;11.86;62.24
84746;BME280;74975;51.922;6.480;2024-03-02T11:01:10;100080.06;;;11.53;62.50
84746;BME280;74975;51.922;6.480;2024-03-02T11:03:37;100078.38;;;12.57;61.74
84746;BME280;74975;51.922;6.480;2024-03-02T11:06:20;100080.69;;;12.94;56.98
84746;BME280;74975;51.922;6.480;2024-03-02T11:08:58;100077.44;;;12.17;58.50
84746;BME280;74975;51.922;6.480;2024-03-02T11:11:32;100075.94;;;12.10;59.02
84746;BME280;74975;51.922;6.480;2024-03-02T11:14:07;100075.38;;;12.42;59.91
84746;BME280;74975;51.922;6.480;2024-03-02T11:16:45;100079.66;;;12.43;60.30
84746;BME280;74975;51.922;6.480;2024-03-02T11:19:13;100076.59;;;12.86;61.12
84746;BME280;74975;51.922;6.480;2024-03-02T11:21:43;100074.44;;;12.72;59.01
84746;BME280;74975;51.922;6.480;2024-03-02T11:26:53;100063.34;;;12.98;57.74
84746;BME280;74975;51.922;6.480;2024-03-02T11:32:21;100059.47;;;12.89;58.50
84746;BME280;74975;51.922;6.480;2024-03-02T11:34:49;100055.28;;;13.16;59.17
84746;BME280;74975;51.922;6.480;2024-03-02T11:37:16;100053.91;;;13.13;58.43
84746;BME280;74975;51.922;6.480;2024-03-02T11:39:49;100054.72;;;13.14;57.99
84746;BME280;74975;51.922;6.480;2024-03-02T11:42:15;100046.56;;;13.04;57.97
84746;BME280;74975;51.922;6.480;2024-03-02T11:44:48;100054.50;;;13.60;57.79
84746;BME280;74975;51.922;6.480;2024-03-02T11:47:17;100053.41;;;13.45;57.46
84746;BME280;74975;51.922;6.480;2024-03-02T11:49:53;100043.28;;;13.25;57.22
84746;BME280;74975;51.922;6.480;2024-03-02T11:52:25;100042.69;;;13.51;56.68
84746;BME280;74975;51.922;6.480;2024-03-02T11:54:54;100033.38;;;13.65;56.50
84746;BME280;74975;51.922;6.480;2024-03-02T11:57:27;100025.34;;;13.44;56.03
84746;BME280;74975;51.922;6.480;2024-03-02T11:59:56;100035.44;;;13.02;56.72
84746;BME280;74975;51.922;6.480;2024-03-02T12:02:23;100036.38;;;13.24;54.77
84746;BME280;74975;51.922;6.480;2024-03-02T12:04:49;100036.56;;;13.34;54.46
84746;BME280;74975;51.922;6.480;2024-03-02T12:07:25;100039.19;;;13.62;53.89
84746;BME280;74975;51.922;6.480;2024-03-02T12:10:07;100038.38;;;13.62;53.37
84746;BME280;74975;51.922;6.480;2024-03-02T12:12:37;100037.81;;;13.76;52.60
84746;BME280;74975;51.922;6.480;2024-03-02T12:15:05;100033.56;;;13.59;51.19
84746;BME280;74975;51.922;6.480;2024-03-02T12:17:35;100026.41;;;14.09;51.81
84746;BME280;74975;51.922;6.480;2024-03-02T12:20:05;100015.66;;;14.32;49.31
84746;BME280;74975;51.922;6.480;2024-03-02T12:22:36;100019.53;;;14.46;51.31
84746;BME280;74975;51.922;6.480;2024-03-02T12:25:11;100014.38;;;14.57;51.05
84746;BME280;74975;51.922;6.480;2024-03-02T12:27:41;100012.53;;;14.57;49.54
84746;BME280;74975;51.922;6.480;2024-03-02T12:30:11;100002.22;;;14.39;49.26
84746;BME280;74975;51.922;6.480;2024-03-02T12:32:44;100004.66;;;14.62;48.59
84746;BME280;74975;51.922;6.480;2024-03-02T12:35:21;100008.13;;;14.46;50.62
84746;BME280;74975;51.922;6.480;2024-03-02T12:37:53;99994.06;;;14.40;48.51
84746;BME280;74975;51.922;6.480;2024-03-02T12:40:25;100002.28;;;14.66;51.07
84746;BME280;74975;51.922;6.480;2024-03-02T12:42:54;100000.25;;;14.51;50.16
84746;BME280;74975;51.922;6.480;2024-03-02T12:45:26;99993.09;;;13.75;49.20
84746;BME280;74975;51.922;6.480;2024-03-02T12:47:53;100000.69;;;13.88;51.73
84746;BME280;74975;51.922;6.480;2024-03-02T12:50:22;99996.13;;;13.50;51.33
84746;BME280;74975;51.922;6.480;2024-03-02T12:52:55;99991.13;;;13.20;53.54
84746;BME280;74975;51.922;6.480;2024-03-02T12:55:21;99998.75;;;13.34;53.11
84746;BME280;74975;51.922;6.480;2024-03-02T12:57:56;99994.53;;;13.49;52.55
84746;BME280;74975;51.922;6.480;2024-03-02T13:00:25;99996.78;;;13.12;54.25
84746;BME280;74975;51.922;6.480;2024-03-02T13:03:00;99994.09;;;13.24;54.39
84746;BME280;74975;51.922;6.480;2024-03-02T13:05:30;99990.16;;;13.27;55.35
84746;BME280;74975;51.922;6.480;2024-03-02T13:07:59;99992.16;;;13.19;56.40
84746;BME280;74975;51.922;6.480;2024-03-02T13:10:25;99984.84;;;13.38;55.75
84746;BME280;74975;51.922;6.480;2024-03-02T13:12:59;99983.56;;;13.57;53.84
84746;BME280;74975;51.922;6.480;2024-03-02T13:15:28;99988.03;;;13.73;52.85
84746;BME280;74975;51.922;6.480;2024-03-02T13:17:53;99982.56;;;13.63;54.42
84746;BME280;74975;51.922;6.480;2024-03-02T13:20:21;99974.41;;;13.48;53.65
84746;BME280;74975;51.922;6.480;2024-03-02T13:22:51;99977.72;;;13.55;55.17
84746;BME280;74975;51.922;6.480;2024-03-02T13:25:24;99970.56;;;13.72;55.28
84746;BME280;74975;51.922;6.480;2024-03-02T13:27:54;99977.41;;;14.07;55.19